Time;durP1;ratioP1;P1;durP2;ratioP2;P2;SDS_P1;SDS_P2;PMS_P1;PMS_P2;Temp;Humidity;BMP_temperature;BMP_pressure;BME280_temperature;BME280_humidity;BME280_pressure;Samples;Min_cycle;Max_cycle;Signal;HPM_P1;HPM_P2
2020/12/13 00:01:54;;;;;;;76.50;36.55;;;;;;;;;;5025343;28;20062;-82
2020/12/13 00:04:21;;;;;;;72.38;37.65;;;;;;;;;;5028688;28;20080;-82
2020/12/13 00:06:48;;;;;;;75.47;35.40;;;;;;;;;;5013686;28;20093;-82
2020/12/13 00:09:14;;;;;;;69.22;37.78;;;;;;;;;;5010036;28;20418;-83
2020/12/13 00:11:40;;;;;;;85.25;39.03;;;;;;;;;;5024130;28;20052;-83
2020/12/13 00:14:06;;;;;;;74.43;37.90;;;;;;;;;;5027807;28;20144;-82
2020/12/13 00:16:32;;;;;;;81.05;38.90;;;;;;;;;;5024689;28;20069;-82
2020/12/13 00:18:59;;;;;;;74.15;37.22;;;;;;;;;;5015854;28;20050;-82
2020/12/13 00:21:26;;;;;;;77.28;37.92;;;;;;;;;;5013473;28;20092;-82
2020/12/13 00:23:54;;;;;;;78.78;37.50;;;;;;;;;;5030680;28;20338;-82
2020/12/13 00:26:20;;;;;;;77.38;38.33;;;;;;;;;;5004980;28;20056;-82
2020/12/13 00:28:47;;;;;;;80.57;38.20;;;;;;;;;;5008025;28;20320;-82
2020/12/13 00:31:14;;;;;;;80.88;39.45;;;;;;;;;;5013892;28;20216;-82
2020/12/13 00:33:40;;;;;;;82.50;39.85;;;;;;;;;;5043333;28;20037;-82
2020/12/13 00:36:07;;;;;;;86.13;38.33;;;;;;;;;;5029601;28;20322;-82
2020/12/13 00:38:33;;;;;;;88.13;39.38;;;;;;;;;;5021339;28;20091;-83
2020/12/13 00:40:59;;;;;;;87.75;39.47;;;;;;;;;;5025437;28;20383;-82
2020/12/13 00:43:25;;;;;;;83.90;38.58;;;;;;;;;;5040067;28;20056;-82
2020/12/13 00:45:52;;;;;;;87.25;38.75;;;;;;;;;;5048116;28;20045;-81
2020/12/13 00:48:19;;;;;;;83.88;40.92;;;;;;;;;;5024690;28;20046;-83
2020/12/13 00:50:45;;;;;;;93.20;40.88;;;;;;;;;;5017575;28;20136;-82
2020/12/13 00:53:11;;;;;;;93.13;41.25;;;;;;;;;;5036671;28;20057;-82
2020/12/13 00:55:37;;;;;;;84.82;39.63;;;;;;;;;;5014963;28;20226;-82
2020/12/13 00:58:03;;;;;;;100.07;40.90;;;;;;;;;;5000119;28;20072;-82
2020/12/13 01:00:29;;;;;;;95.53;41.15;;;;;;;;;;4999156;28;20065;-82
2020/12/13 01:03:00;;;;;;;97.68;41.65;;;;;;;;;;5029281;28;20060;-82
2020/12/13 01:05:27;;;;;;;106.07;43.00;;;;;;;;;;5020622;28;20068;-82
2020/12/13 01:08:05;;;;;;;102.00;41.72;;;;;;;;;;5019424;28;20059;-82
2020/12/13 01:10:31;;;;;;;107.03;42.53;;;;;;;;;;5037930;28;20073;-82
2020/12/13 01:12:58;;;;;;;104.15;44.13;;;;;;;;;;5039167;28;20056;-82
2020/12/13 01:15:27;;;;;;;106.57;41.33;;;;;;;;;;5039601;28;20333;-82
2020/12/13 01:17:56;;;;;;;117.70;43.42;;;;;;;;;;5039750;28;20053;-82
2020/12/13 01:20:23;;;;;;;101.25;43.03;;;;;;;;;;5022069;28;20152;-82
2020/12/13 01:22:50;;;;;;;104.40;42.30;;;;;;;;;;5022602;28;20049;-82
2020/12/13 01:25:16;;;;;;;111.07;43.78;;;;;;;;;;5034095;28;20053;-82
2020/12/13 01:27:45;;;;;;;116.47;46.70;;;;;;;;;;5039578;28;20113;-82
2020/12/13 01:30:14;;;;;;;96.70;41.85;;;;;;;;;;5035546;28;20107;-82
2020/12/13 01:32:41;;;;;;;104.68;42.28;;;;;;;;;;5038555;28;20069;-82
2020/12/13 01:35:08;;;;;;;108.00;42.42;;;;;;;;;;5038801;28;20046;-82
2020/12/13 01:37:34;;;;;;;101.18;40.92;;;;;;;;;;5040335;28;20049;-82
2020/12/13 01:40:00;;;;;;;107.57;41.67;;;;;;;;;;5036383;28;20050;-82
2020/12/13 01:42:27;;;;;;;128.18;44.00;;;;;;;;;;5018815;28;20065;-81
2020/12/13 01:44:53;;;;;;;105.43;42.25;;;;;;;;;;5022822;28;20089;-82
2020/12/13 01:47:19;;;;;;;107.20;40.95;;;;;;;;;;5023456;28;20488;-82
2020/12/13 01:49:47;;;;;;;108.60;41.22;;;;;;;;;;5025719;28;20069;-82
2020/12/13 01:54:55;;;;;;;113.57;44.20;;;;;;;;;;5020914;28;20049;-82
2020/12/13 01:57:23;;;;;;;106.60;41.33;;;;;;;;;;5033654;28;20565;-82
2020/12/13 01:59:51;;;;;;;125.93;45.60;;;;;;;;;;5022881;28;20053;-82
2020/12/13 02:02:22;;;;;;;115.53;44.65;;;;;;;;;;5038295;28;20053;-82
2020/12/13 02:04:50;;;;;;;116.97;41.35;;;;;;;;;;5022019;28;20057;-81
2020/12/13 02:07:17;;;;;;;104.40;43.65;;;;;;;;;;5022137;28;20088;-82
2020/12/13 02:09:45;;;;;;;105.30;42.65;;;;;;;;;;5022601;28;20062;-82
2020/12/13 02:12:11;;;;;;;111.07;44.25;;;;;;;;;;5039434;28;20076;-81
2020/12/13 02:14:37;;;;;;;119.93;44.00;;;;;;;;;;5031226;28;20122;-81
2020/12/13 02:17:04;;;;;;;114.65;41.67;;;;;;;;;;5036336;28;20050;-81
2020/12/13 02:19:30;;;;;;;103.35;40.72;;;;;;;;;;5048872;28;20097;-81
2020/12/13 02:21:59;;;;;;;109.25;41.65;;;;;;;;;;5042809;28;20467;-81
2020/12/13 02:24:26;;;;;;;103.38;42.63;;;;;;;;;;5033822;28;20080;-81
2020/12/13 02:26:52;;;;;;;104.35;41.33;;;;;;;;;;5022123;28;20053;-81
2020/12/13 02:29:18;;;;;;;97.07;40.72;;;;;;;;;;5021420;28;20103;-81
2020/12/13 02:31:45;;;;;;;103.20;41.88;;;;;;;;;;5041910;28;20049;-81
2020/12/13 02:34:11;;;;;;;98.28;41.00;;;;;;;;;;5043110;28;20061;-81
2020/12/13 02:36:37;;;;;;;101.35;41.08;;;;;;;;;;5026872;28;20080;-81
2020/12/13 02:39:07;;;;;;;102.22;41.05;;;;;;;;;;5043634;28;20073;-81
2020/12/13 02:41:33;;;;;;;106.32;40.65;;;;;;;;;;5043053;28;20330;-81
2020/12/13 02:43:59;;;;;;;92.28;39.50;;;;;;;;;;5043935;28;20077;-81
2020/12/13 02:46:25;;;;;;;100.03;41.03;;;;;;;;;;5042420;28;20111;-81
2020/12/13 02:48:51;;;;;;;95.28;40.08;;;;;;;;;;5033812;28;20053;-81
2020/12/13 02:51:18;;;;;;;90.72;38.17;;;;;;;;;;5030748;28;20049;-80
2020/12/13 02:53:44;;;;;;;92.55;40.50;;;;;;;;;;5024504;28;20049;-80
2020/12/13 02:56:11;;;;;;;85.78;38.47;;;;;;;;;;5041872;28;20045;-81
2020/12/13 02:58:37;;;;;;;89.57;38.88;;;;;;;;;;5030865;28;20289;-80
2020/12/13 03:01:03;;;;;;;90.30;38.60;;;;;;;;;;5028021;28;20086;-81
2020/12/13 03:03:30;;;;;;;85.47;39.78;;;;;;;;;;5026193;28;20281;-82
2020/12/13 03:05:57;;;;;;;92.32;39.55;;;;;;;;;;5011511;28;20426;-82
2020/12/13 03:08:24;;;;;;;96.00;41.33;;;;;;;;;;5023050;28;20077;-82
2020/12/13 03:10:51;;;;;;;86.80;37.40;;;;;;;;;;5024389;28;20054;-80
2020/12/13 03:13:17;;;;;;;98.43;38.38;;;;;;;;;;5042079;28;20056;-80
2020/12/13 03:15:44;;;;;;;91.07;38.15;;;;;;;;;;5025050;28;20049;-80
2020/12/13 03:18:10;;;;;;;84.47;39.63;;;;;;;;;;5025174;28;20050;-82
2020/12/13 03:20:36;;;;;;;86.90;39.58;;;;;;;;;;5008381;28;20413;-82
2020/12/13 03:23:02;;;;;;;97.13;39.60;;;;;;;;;;5022099;28;20104;-82
2020/12/13 03:25:29;;;;;;;99.38;38.42;;;;;;;;;;5005294;28;20057;-82
2020/12/13 03:27:55;;;;;;;95.15;39.33;;;;;;;;;;5035566;28;20077;-80
2020/12/13 03:30:21;;;;;;;101.10;39.15;;;;;;;;;;5022366;28;20064;-80
2020/12/13 03:32:47;;;;;;;89.70;36.90;;;;;;;;;;5022344;28;20050;-82
2020/12/13 03:35:13;;;;;;;87.60;37.63;;;;;;;;;;5022838;28;20077;-80
2020/12/13 03:37:40;;;;;;;90.68;35.55;;;;;;;;;;5025067;28;20050;-79
2020/12/13 03:40:06;;;;;;;89.10;39.63;;;;;;;;;;5034518;28;20053;-80
2020/12/13 03:42:32;;;;;;;98.28;37.78;;;;;;;;;;5041226;28;20114;-83
2020/12/13 03:44:59;;;;;;;89.43;39.35;;;;;;;;;;5041210;28;20080;-82
2020/12/13 03:47:25;;;;;;;96.68;39.03;;;;;;;;;;5039135;28;20053;-80
2020/12/13 03:49:51;;;;;;;100.25;38.90;;;;;;;;;;5025239;28;20103;-81
2020/12/13 03:52:17;;;;;;;93.30;37.65;;;;;;;;;;5040985;28;20049;-81
2020/12/13 03:54:43;;;;;;;93.50;37.83;;;;;;;;;;5042567;28;20057;-81
2020/12/13 03:57:10;;;;;;;98.72;38.55;;;;;;;;;;5026422;28;20112;-81
2020/12/13 03:59:36;;;;;;;107.18;39.47;;;;;;;;;;5040324;28;20057;-81
2020/12/13 04:02:04;;;;;;;100.57;38.92;;;;;;;;;;5048207;28;20059;-79
2020/12/13 04:04:31;;;;;;;95.88;37.15;;;;;;;;;;5042855;28;20049;-80
2020/12/13 04:06:57;;;;;;;98.88;38.17;;;;;;;;;;5057233;28;20037;-81
2020/12/13 04:09:24;;;;;;;98.85;38.53;;;;;;;;;;5044816;28;20056;-81
2020/12/13 04:11:51;;;;;;;102.80;37.58;;;;;;;;;;5042742;28;20054;-81
2020/12/13 04:14:17;;;;;;;91.63;37.53;;;;;;;;;;5028474;28;20211;-80
2020/12/13 04:16:45;;;;;;;102.82;36.92;;;;;;;;;;5055741;28;20037;-81
2020/12/13 04:19:12;;;;;;;99.57;38.22;;;;;;;;;;5047520;28;20068;-82
2020/12/13 04:21:39;;;;;;;93.95;38.13;;;;;;;;;;5014593;28;20114;-81
2020/12/13 04:24:05;;;;;;;100.25;35.88;;;;;;;;;;5039064;28;20057;-82
2020/12/13 04:26:32;;;;;;;114.38;38.25;;;;;;;;;;5030257;28;20123;-82
2020/12/13 04:28:58;;;;;;;95.65;37.13;;;;;;;;;;5014342;28;20161;-82
2020/12/13 04:31:24;;;;;;;103.38;37.97;;;;;;;;;;5016935;28;20353;-83
2020/12/13 04:33:50;;;;;;;95.05;35.55;;;;;;;;;;5024825;28;20409;-85
2020/12/13 04:36:17;;;;;;;107.68;39.00;;;;;;;;;;5002442;28;20058;-87
2020/12/13 04:38:43;;;;;;;107.85;39.75;;;;;;;;;;5019761;28;20125;-87
2020/12/13 04:41:09;;;;;;;105.75;38.83;;;;;;;;;;5014606;28;20060;-85
2020/12/13 04:43:35;;;;;;;118.20;38.58;;;;;;;;;;5037313;28;20429;-84
2020/12/13 04:46:01;;;;;;;100.32;37.45;;;;;;;;;;5032263;28;20385;-83
2020/12/13 04:48:28;;;;;;;101.63;35.15;;;;;;;;;;5019070;28;20141;-83
2020/12/13 04:50:56;;;;;;;100.43;37.72;;;;;;;;;;5022138;28;20053;-84
2020/12/13 04:53:26;;;;;;;106.85;37.95;;;;;;;;;;5037481;28;20152;-84
2020/12/13 04:55:54;;;;;;;103.63;37.03;;;;;;;;;;5020977;28;20096;-85
2020/12/13 04:58:21;;;;;;;100.10;35.95;;;;;;;;;;5038642;28;20064;-86
2020/12/13 05:00:52;;;;;;;96.05;35.55;;;;;;;;;;5014298;28;20068;-86
2020/12/13 05:03:18;;;;;;;95.35;35.80;;;;;;;;;;4998781;28;20061;-86
2020/12/13 05:05:45;;;;;;;96.65;36.45;;;;;;;;;;5016994;28;20081;-86
2020/12/13 05:08:11;;;;;;;96.43;34.83;;;;;;;;;;5019716;28;20050;-87
2020/12/13 05:10:40;;;;;;;92.55;35.70;;;;;;;;;;5025862;28;20091;-86
2020/12/13 05:13:07;;;;;;;110.07;35.17;;;;;;;;;;5034975;28;20065;-85
2020/12/13 05:15:34;;;;;;;93.93;34.95;;;;;;;;;;5022478;28;20050;-85
2020/12/13 05:18:01;;;;;;;88.25;33.35;;;;;;;;;;5001045;28;20124;-84
2020/12/13 05:20:27;;;;;;;83.93;34.08;;;;;;;;;;5014406;28;20077;-85
2020/12/13 05:22:57;;;;;;;96.80;34.47;;;;;;;;;;5015778;28;20279;-86
2020/12/13 05:25:37;;;;;;;92.68;32.15;;;;;;;;;;5030426;28;20310;-85
2020/12/13 05:28:04;;;;;;;90.03;31.77;;;;;;;;;;5009935;28;20145;-86
2020/12/13 05:30:36;;;;;;;70.72;30.90;;;;;;;;;;5032347;28;20056;-86
2020/12/13 05:33:09;;;;;;;89.70;34.53;;;;;;;;;;5016198;28;20042;-87
2020/12/13 05:35:36;;;;;;;86.18;31.63;;;;;;;;;;5012521;28;20050;-86
2020/12/13 05:38:13;;;;;;;78.25;32.83;;;;;;;;;;5013767;28;20241;-86
2020/12/13 05:40:42;;;;;;;;;;;;;;;;;;4999217;28;20069;-87
2020/12/13 05:43:13;;;;;;;87.05;33.05;;;;;;;;;;4999465;28;19922;-87
2020/12/13 05:45:58;;;;;;;82.75;31.35;;;;;;;;;;5001411;28;20064;-86
2020/12/13 05:53:21;;;;;;;86.93;31.63;;;;;;;;;;5018441;28;20430;-85
2020/12/13 05:55:53;;;;;;;92.80;32.13;;;;;;;;;;5014834;28;20056;-82
2020/12/13 05:58:20;;;;;;;89.85;32.78;;;;;;;;;;5031777;28;20326;-83
2020/12/13 06:00:47;;;;;;;77.68;30.48;;;;;;;;;;5015889;28;20246;-82
2020/12/13 06:03:21;;;;;;;76.13;30.95;;;;;;;;;;5029226;28;20157;-83
2020/12/13 06:05:51;;;;;;;83.85;31.65;;;;;;;;;;5010896;28;20133;-83
2020/12/13 06:08:22;;;;;;;69.18;29.20;;;;;;;;;;4995873;28;20057;-83
2020/12/13 06:10:50;;;;;;;82.45;31.73;;;;;;;;;;5000415;28;20062;-83
2020/12/13 06:13:18;;;;;;;76.00;30.30;;;;;;;;;;5002945;28;20078;-84
2020/12/13 06:15:46;;;;;;;76.90;30.10;;;;;;;;;;5002138;28;20402;-86
2020/12/13 06:18:12;;;;;;;69.40;28.55;;;;;;;;;;5020263;28;20105;-85
2020/12/13 06:20:44;;;;;;;69.90;29.50;;;;;;;;;;5023302;28;20049;-84
2020/12/13 06:23:11;;;;;;;77.38;29.48;;;;;;;;;;5022067;28;20050;-84
2020/12/13 06:25:38;;;;;;;74.38;28.33;;;;;;;;;;5020661;28;20077;-85
2020/12/13 06:28:04;;;;;;;72.72;29.02;;;;;;;;;;5019995;28;20058;-84
2020/12/13 06:30:31;;;;;;;68.88;28.85;;;;;;;;;;5005559;28;20061;-84
2020/12/13 06:32:58;;;;;;;61.45;26.48;;;;;;;;;;5022661;28;20128;-84
2020/12/13 06:35:24;;;;;;;71.53;28.70;;;;;;;;;;5036957;28;20062;-86
2020/12/13 06:37:50;;;;;;;63.20;27.73;;;;;;;;;;5003363;28;20058;-84
2020/12/13 06:40:21;;;;;;;63.60;26.50;;;;;;;;;;5003176;28;20389;-85
2020/12/13 06:42:49;;;;;;;73.60;26.83;;;;;;;;;;5004395;28;20046;-85
2020/12/13 06:45:16;;;;;;;61.13;25.92;;;;;;;;;;5019237;28;20050;-85
2020/12/13 06:47:43;;;;;;;67.47;26.20;;;;;;;;;;5039711;28;20050;-85
2020/12/13 06:50:20;;;;;;;67.25;26.83;;;;;;;;;;5033132;28;20050;-85
2020/12/13 06:52:48;;;;;;;59.45;25.83;;;;;;;;;;5031681;28;20050;-85
2020/12/13 06:55:15;;;;;;;65.75;26.80;;;;;;;;;;5043841;28;20082;-85
2020/12/13 06:57:42;;;;;;;65.85;27.55;;;;;;;;;;5024382;28;20050;-85
2020/12/13 07:00:09;;;;;;;62.97;26.35;;;;;;;;;;5039811;28;20391;-85
2020/12/13 07:02:44;;;;;;;64.90;26.75;;;;;;;;;;5043758;28;20070;-85
2020/12/13 07:05:11;;;;;;;59.47;27.33;;;;;;;;;;5024149;28;20068;-86
2020/12/13 07:07:37;;;;;;;54.83;26.23;;;;;;;;;;5023692;28;20476;-86
2020/12/13 07:10:05;;;;;;;60.65;26.30;;;;;;;;;;5007407;28;20073;-86
2020/12/13 07:12:31;;;;;;;63.22;25.55;;;;;;;;;;5023002;28;20060;-87
2020/12/13 07:14:57;;;;;;;59.90;25.80;;;;;;;;;;5026859;28;20054;-87
2020/12/13 07:17:28;;;;;;;60.75;27.30;;;;;;;;;;5022507;28;20050;-87
2020/12/13 07:19:56;;;;;;;66.68;25.90;;;;;;;;;;5027244;28;20050;-88
2020/12/13 07:22:22;;;;;;;63.22;25.55;;;;;;;;;;5037301;28;20057;-88
2020/12/13 07:24:48;;;;;;;57.85;24.23;;;;;;;;;;5016341;28;20057;-88
2020/12/13 07:27:14;;;;;;;54.38;25.33;;;;;;;;;;5037330;28;20054;-89
2020/12/13 07:29:41;;;;;;;58.17;24.70;;;;;;;;;;5013310;28;20050;-89
2020/12/13 07:32:07;;;;;;;54.58;24.25;;;;;;;;;;5044698;28;20079;-89
2020/12/13 07:34:35;;;;;;;55.67;23.25;;;;;;;;;;5053090;28;20037;-88
2020/12/13 07:37:02;;;;;;;62.60;24.45;;;;;;;;;;5042950;28;20034;-87
2020/12/13 07:39:31;;;;;;;54.90;25.38;;;;;;;;;;5022805;28;20046;-88
2020/12/13 07:42:05;;;;;;;54.22;24.75;;;;;;;;;;5020802;28;20113;-89
2020/12/13 07:44:32;;;;;;;52.25;23.48;;;;;;;;;;5028815;28;20053;-89
2020/12/13 07:50:21;;;;;;;53.35;23.77;;;;;;;;;;5045317;28;20060;-88
2020/12/13 07:52:47;;;;;;;51.25;24.15;;;;;;;;;;5015015;28;20112;-88
2020/12/13 07:55:13;;;;;;;58.55;25.00;;;;;;;;;;5035843;28;20124;-89
2020/12/13 07:57:46;;;;;;;63.80;26.00;;;;;;;;;;5022360;28;20049;-88
2020/12/13 08:00:12;;;;;;;52.78;24.52;;;;;;;;;;5029313;28;20053;-88
2020/12/13 08:02:38;;;;;;;55.45;23.10;;;;;;;;;;5031529;28;20140;-86
2020/12/13 08:05:05;;;;;;;49.97;23.55;;;;;;;;;;5017942;28;20128;-87
2020/12/13 08:07:31;;;;;;;53.45;24.05;;;;;;;;;;5037773;28;20122;-87
2020/12/13 08:10:01;;;;;;;54.55;24.70;;;;;;;;;;5032838;28;20401;-88
2020/12/13 08:12:33;;;;;;;57.08;25.17;;;;;;;;;;5009728;28;20073;-88
2020/12/13 08:15:05;;;;;;;66.65;24.50;;;;;;;;;;5035878;28;20088;-88
2020/12/13 08:17:33;;;;;;;69.00;26.05;;;;;;;;;;5031532;28;20323;-88
2020/12/13 08:20:04;;;;;;;60.80;24.48;;;;;;;;;;5026276;28;20492;-88
2020/12/13 08:22:34;;;;;;;79.82;25.15;;;;;;;;;;5031946;28;21284;-88
2020/12/13 08:25:04;;;;;;;55.88;24.67;;;;;;;;;;5025676;28;20085;-88
2020/12/13 08:27:32;;;;;;;64.60;24.17;;;;;;;;;;5024740;28;20057;-88
2020/12/13 08:29:59;;;;;;;57.17;24.77;;;;;;;;;;5030056;28;20653;-88
2020/12/13 08:32:32;;;;;;;59.95;24.50;;;;;;;;;;5031491;28;20399;-88
2020/12/13 08:35:12;;;;;;;64.32;26.33;;;;;;;;;;5035975;28;20042;-88
2020/12/13 08:37:38;;;;;;;61.60;24.15;;;;;;;;;;5023847;28;20393;-88
2020/12/13 08:40:34;;;;;;;58.65;24.65;;;;;;;;;;5007417;28;20070;-88
2020/12/13 08:43:00;;;;;;;70.53;26.55;;;;;;;;;;5026204;28;20136;-88
2020/12/13 08:45:27;;;;;;;82.05;26.85;;;;;;;;;;5032041;28;20398;-88
2020/12/13 08:48:06;;;;;;;60.33;26.92;;;;;;;;;;5033383;28;20049;-88
2020/12/13 08:50:42;;;;;;;82.10;26.35;;;;;;;;;;5040447;28;20080;-88
2020/12/13 08:53:23;;;;;;;112.13;42.05;;;;;;;;;;5029292;28;20312;-88
2020/12/13 08:56:19;;;;;;;67.95;27.40;;;;;;;;;;5037471;28;20061;-88
2020/12/13 08:58:49;;;;;;;70.38;26.80;;;;;;;;;;4990129;28;20065;-88
2020/12/13 09:01:16;;;;;;;59.03;27.52;;;;;;;;;;5004486;28;997429;-88
2020/12/13 09:03:53;;;;;;;67.95;27.17;;;;;;;;;;5024408;28;20136;-88
2020/12/13 09:06:26;;;;;;;60.38;25.23;;;;;;;;;;5033354;28;20045;-88
2020/12/13 09:08:52;;;;;;;68.45;27.45;;;;;;;;;;5019331;28;20140;-88
2020/12/13 09:11:32;;;;;;;63.97;27.23;;;;;;;;;;5034712;28;20475;-88
2020/12/13 09:14:00;;;;;;;74.43;25.48;;;;;;;;;;5015053;28;20053;-87
2020/12/13 09:16:36;;;;;;;69.65;27.30;;;;;;;;;;5014573;28;20118;-87
2020/12/13 09:19:17;;;;;;;70.15;27.23;;;;;;;;;;5022934;28;20318;-87
2020/12/13 09:36:25;;;;;;;62.83;27.33;;;;;;;;;;4890726;29;20069;-87
2020/12/13 09:46:32;;;;;;;72.28;29.48;;;;;;;;;;4757007;30;20281;-87
2020/12/13 09:49:33;;;;;;;86.70;29.58;;;;;;;;;;4823369;29;20088;-86
2020/12/13 09:56:46;;;;;;;91.68;30.70;;;;;;;;;;4859148;29;20037;-85
2020/12/13 09:59:59;;;;;;;88.85;29.77;;;;;;;;;;4858877;29;20048;-84
2020/12/13 10:09:22;;;;;;;76.20;30.10;;;;;;;;;;4940312;29;20134;-84
2020/12/13 10:11:49;;;;;;;72.18;31.33;;;;;;;;;;4951153;29;20424;-84
2020/12/13 10:14:17;;;;;;;88.75;32.17;;;;;;;;;;4940251;29;20499;-83
2020/12/13 10:16:45;;;;;;;87.85;30.52;;;;;;;;;;4971441;28;20532;-84
2020/12/13 10:19:12;;;;;;;86.28;31.08;;;;;;;;;;4976966;28;20429;-83
2020/12/13 10:21:38;;;;;;;83.45;31.35;;;;;;;;;;4974560;28;20050;-83
2020/12/13 10:24:05;;;;;;;69.30;28.88;;;;;;;;;;4962950;28;20110;-82
2020/12/13 10:26:33;;;;;;;69.28;30.85;;;;;;;;;;4978186;28;20427;-82
2020/12/13 10:29:03;;;;;;;71.20;29.52;;;;;;;;;;4961978;28;20043;-82
2020/12/13 10:31:30;;;;;;;75.97;29.73;;;;;;;;;;4977600;28;20047;-82
2020/12/13 10:33:56;;;;;;;75.22;29.27;;;;;;;;;;4978522;28;20058;-82
2020/12/13 10:36:23;;;;;;;83.65;30.67;;;;;;;;;;4990156;28;20118;-82
2020/12/13 10:38:51;;;;;;;79.63;30.52;;;;;;;;;;5035532;28;20107;-82
2020/12/13 10:41:21;;;;;;;81.63;31.38;;;;;;;;;;5018235;28;20049;-82
2020/12/13 10:43:56;;;;;;;71.75;29.45;;;;;;;;;;5030682;28;20076;-81
2020/12/13 10:46:22;;;;;;;63.88;27.67;;;;;;;;;;5037995;28;20250;-82
2020/12/13 10:48:49;;;;;;;67.07;27.98;;;;;;;;;;5020508;28;20061;-83
2020/12/13 10:51:16;;;;;;;68.72;29.98;;;;;;;;;;5039074;28;20243;-82
2020/12/13 10:53:43;;;;;;;66.10;28.20;;;;;;;;;;5023484;28;20053;-82
2020/12/13 10:56:09;;;;;;;62.45;27.45;;;;;;;;;;5030924;28;20050;-82
2020/12/13 10:58:38;;;;;;;57.38;26.10;;;;;;;;;;5045911;28;20050;-82
2020/12/13 11:01:04;;;;;;;68.85;28.95;;;;;;;;;;5048199;28;20116;-82
2020/12/13 11:03:32;;;;;;;64.93;28.17;;;;;;;;;;5039552;28;20045;-82
2020/12/13 11:06:07;;;;;;;62.50;27.88;;;;;;;;;;5040059;28;20179;-81
2020/12/13 11:08:34;;;;;;;67.38;26.05;;;;;;;;;;5042725;28;20037;-81
2020/12/13 11:11:00;;;;;;;59.22;26.60;;;;;;;;;;5029402;28;20445;-81
2020/12/13 11:13:26;;;;;;;65.57;27.80;;;;;;;;;;5037596;28;20059;-81
2020/12/13 11:15:53;;;;;;;58.65;26.90;;;;;;;;;;5014882;28;20042;-80
2020/12/13 11:18:19;;;;;;;57.25;24.95;;;;;;;;;;5042324;28;20626;-81
2020/12/13 11:20:46;;;;;;;49.67;24.27;;;;;;;;;;5034736;28;20338;-81
2020/12/13 11:23:12;;;;;;;48.50;24.20;;;;;;;;;;5040281;28;20052;-81
2020/12/13 11:25:38;;;;;;;49.33;21.05;;;;;;;;;;5009546;28;20037;-81
2020/12/13 11:28:06;;;;;;;40.80;21.13;;;;;;;;;;5006359;28;20148;-81
2020/12/13 11:30:33;;;;;;;44.22;22.25;;;;;;;;;;5045957;28;20103;-81
2020/12/13 11:32:59;;;;;;;47.40;22.42;;;;;;;;;;5030661;28;20437;-81
2020/12/13 11:35:25;;;;;;;45.90;21.35;;;;;;;;;;5036877;28;20307;-81
2020/12/13 11:37:52;;;;;;;44.97;22.33;;;;;;;;;;5023273;28;20058;-80
2020/12/13 11:40:18;;;;;;;37.42;19.98;;;;;;;;;;5020118;28;20100;-80
2020/12/13 11:42:45;;;;;;;32.95;18.27;;;;;;;;;;5030070;28;20057;-81
2020/12/13 11:45:11;;;;;;;30.80;18.52;;;;;;;;;;5031004;28;20049;-80
2020/12/13 11:47:37;;;;;;;33.20;17.95;;;;;;;;;;5027979;28;20046;-80
2020/12/13 11:50:05;;;;;;;33.25;17.42;;;;;;;;;;5030194;28;20068;-81
2020/12/13 11:52:31;;;;;;;32.72;17.90;;;;;;;;;;5030379;28;20182;-81
2020/12/13 11:54:58;;;;;;;33.63;18.42;;;;;;;;;;5020738;28;20295;-82
2020/12/13 11:57:25;;;;;;;33.20;19.05;;;;;;;;;;5026896;28;20349;-81
2020/12/13 11:59:51;;;;;;;38.20;19.98;;;;;;;;;;5035373;28;20369;-82
2020/12/13 12:02:17;;;;;;;39.58;20.25;;;;;;;;;;5035110;28;20103;-81
2020/12/13 12:04:43;;;;;;;36.63;19.98;;;;;;;;;;5033650;28;20081;-81
2020/12/13 12:07:10;;;;;;;37.15;18.85;;;;;;;;;;5015162;28;20049;-81
2020/12/13 12:09:39;;;;;;;42.47;21.67;;;;;;;;;;5031101;28;20140;-82
2020/12/13 12:12:05;;;;;;;57.22;27.30;;;;;;;;;;5016447;28;20045;-82
2020/12/13 12:14:32;;;;;;;57.85;26.67;;;;;;;;;;5013841;28;20050;-82
2020/12/13 12:17:00;;;;;;;61.15;28.90;;;;;;;;;;5019389;28;20087;-82
2020/12/13 12:19:27;;;;;;;65.28;29.73;;;;;;;;;;5052673;28;20426;-81
2020/12/13 12:21:54;;;;;;;68.25;28.70;;;;;;;;;;5012309;28;20434;-81
2020/12/13 12:24:21;;;;;;;64.22;27.02;;;;;;;;;;5013390;28;20072;-82
2020/12/13 12:26:51;;;;;;;61.33;29.30;;;;;;;;;;5015518;28;20060;-81
2020/12/13 12:29:21;;;;;;;62.58;29.98;;;;;;;;;;4997162;28;20358;-82
2020/12/13 12:31:52;;;;;;;59.72;27.48;;;;;;;;;;4998467;28;20406;-81
2020/12/13 12:34:18;;;;;;;61.25;28.42;;;;;;;;;;5014433;28;20054;-81
2020/12/13 12:36:45;;;;;;;65.38;29.77;;;;;;;;;;5012811;28;20092;-81
2020/12/13 12:39:11;;;;;;;66.78;31.00;;;;;;;;;;5015755;28;20107;-82
2020/12/13 12:41:42;;;;;;;67.70;30.48;;;;;;;;;;5016661;28;20046;-81
2020/12/13 12:44:08;;;;;;;65.35;29.77;;;;;;;;;;5016386;28;20361;-81
2020/12/13 12:46:35;;;;;;;69.25;28.27;;;;;;;;;;5027501;28;20215;-82
2020/12/13 12:49:02;;;;;;;73.60;33.28;;;;;;;;;;5002827;28;20119;-81
2020/12/13 12:51:28;;;;;;;77.22;32.45;;;;;;;;;;5015956;28;20045;-82
2020/12/13 12:53:55;;;;;;;60.33;28.02;;;;;;;;;;5023642;28;20073;-81
2020/12/13 12:56:22;;;;;;;58.17;28.45;;;;;;;;;;5004641;28;20045;-81
2020/12/13 12:58:56;;;;;;;59.03;27.23;;;;;;;;;;5001869;28;20057;-81
2020/12/13 13:01:33;;;;;;;58.60;26.98;;;;;;;;;;5006284;28;20146;-82
2020/12/13 13:04:04;;;;;;;54.40;26.77;;;;;;;;;;5023355;28;20425;-82
2020/12/13 13:11:48;;;;;;;59.42;28.85;;;;;;;;;;5021352;28;20524;-81
2020/12/13 13:14:14;;;;;;;66.97;29.42;;;;;;;;;;5007590;28;20047;-80
2020/12/13 13:16:40;;;;;;;63.70;28.55;;;;;;;;;;5008235;28;20559;-80
2020/12/13 13:19:11;;;;;;;62.03;29.35;;;;;;;;;;5018839;28;20461;-80
2020/12/13 13:21:43;;;;;;;61.00;27.10;;;;;;;;;;5020358;28;20064;-80
2020/12/13 13:24:12;;;;;;;56.75;27.17;;;;;;;;;;5001421;28;20108;-80
2020/12/13 13:26:39;;;;;;;58.33;27.35;;;;;;;;;;5028030;28;20045;-81
2020/12/13 13:29:06;;;;;;;49.05;24.33;;;;;;;;;;5020898;28;20072;-81
2020/12/13 13:31:32;;;;;;;56.58;27.50;;;;;;;;;;5008939;28;20112;-81
2020/12/13 13:33:59;;;;;;;54.80;26.48;;;;;;;;;;5005056;28;20444;-81
2020/12/13 13:36:27;;;;;;;53.15;26.27;;;;;;;;;;5003350;28;20056;-81
2020/12/13 13:38:53;;;;;;;56.50;27.38;;;;;;;;;;5020818;28;20065;-81
2020/12/13 13:41:26;;;;;;;55.97;27.15;;;;;;;;;;5020289;28;20053;-81
2020/12/13 13:44:03;;;;;;;57.50;27.63;;;;;;;;;;5019381;28;20049;-81
2020/12/13 13:46:51;;;;;;;59.40;26.45;;;;;;;;;;5016701;28;20050;-81
2020/12/13 13:49:26;;;;;;;64.65;28.73;;;;;;;;;;5020628;28;20053;-81
2020/12/13 13:51:52;;;;;;;57.10;26.63;;;;;;;;;;5006458;28;20088;-81
2020/12/13 13:54:20;;;;;;;56.08;26.58;;;;;;;;;;5032981;28;20139;-81
2020/12/13 13:57:11;;;;;;;55.33;27.52;;;;;;;;;;5025323;28;20045;-81
2020/12/13 13:59:33;;;;;;;65.20;31.83;;;;;;;;;;5026747;28;20049;-81
2020/12/13 14:02:00;;;;;;;60.92;29.85;;;;;;;;;;5012137;28;20332;-82
2020/12/13 14:04:28;;;;;;;62.40;31.77;;;;;;;;;;5021880;28;20278;-82
2020/12/13 14:09:30;;;;;;;53.78;27.90;;;;;;;;;;5019457;28;20202;-81
2020/12/13 14:11:56;;;;;;;63.03;32.90;;;;;;;;;;5016849;28;20061;-82
2020/12/13 14:14:23;;;;;;;53.65;27.77;;;;;;;;;;5007139;28;20325;-82
2020/12/13 14:16:50;;;;;;;50.63;25.80;;;;;;;;;;5024276;28;20112;-82
2020/12/13 14:19:17;;;;;;;48.78;25.17;;;;;;;;;;5019942;28;20218;-81
2020/12/13 14:21:43;;;;;;;55.80;26.13;;;;;;;;;;5007348;28;20350;-82
2020/12/13 14:24:10;;;;;;;58.20;26.88;;;;;;;;;;5002747;28;20160;-81
2020/12/13 14:26:38;;;;;;;55.53;27.77;;;;;;;;;;5005242;28;20046;-81
2020/12/13 14:29:05;;;;;;;57.47;28.27;;;;;;;;;;5009700;28;20050;-81
2020/12/13 14:31:31;;;;;;;64.50;35.72;;;;;;;;;;5021396;28;20069;-81
2020/12/13 14:33:58;;;;;;;50.38;27.40;;;;;;;;;;5043126;28;20037;-82
2020/12/13 14:36:25;;;;;;;46.45;24.58;;;;;;;;;;5023900;28;20033;-82
2020/12/13 14:38:53;;;;;;;54.70;28.42;;;;;;;;;;5030316;28;20059;-81
2020/12/13 14:41:19;;;;;;;51.33;28.20;;;;;;;;;;5032347;28;20068;-82
2020/12/13 14:43:46;;;;;;;51.92;25.48;;;;;;;;;;5029897;28;20029;-82
2020/12/13 14:46:14;;;;;;;44.72;23.67;;;;;;;;;;5032117;28;20221;-82
2020/12/13 14:48:40;;;;;;;44.92;25.15;;;;;;;;;;5030630;28;20112;-82
2020/12/13 14:51:07;;;;;;;41.58;22.95;;;;;;;;;;5022643;28;20132;-83
2020/12/13 14:53:34;;;;;;;46.42;25.65;;;;;;;;;;5023473;28;20037;-81
2020/12/13 14:56:05;;;;;;;44.83;25.30;;;;;;;;;;5014126;28;20093;-81
2020/12/13 14:58:31;;;;;;;46.33;23.45;;;;;;;;;;5031045;28;20058;-82
2020/12/13 15:00:58;;;;;;;45.35;24.00;;;;;;;;;;5024958;28;20471;-81
2020/12/13 15:03:25;;;;;;;47.97;25.35;;;;;;;;;;5023985;28;20107;-81
2020/12/13 15:05:51;;;;;;;46.53;25.05;;;;;;;;;;4998935;28;20121;-81
2020/12/13 15:08:18;;;;;;;50.25;25.58;;;;;;;;;;5010062;28;20059;-81
2020/12/13 15:10:48;;;;;;;49.40;26.33;;;;;;;;;;5009325;28;20426;-81
2020/12/13 15:13:25;;;;;;;44.58;26.20;;;;;;;;;;5021404;28;20144;-81
2020/12/13 15:16:08;;;;;;;44.67;25.10;;;;;;;;;;5023370;28;20113;-82